createdAt,value
2023-03-07T00:01:23.529Z,7.50
2023-03-07T00:03:52.055Z,7.40
2023-03-07T00:06:20.666Z,7.50
2023-03-07T00:08:52.332Z,7.50
2023-03-07T00:11:21.318Z,7.50
2023-03-07T00:13:49.960Z,7.50
2023-03-07T00:16:20.009Z,7.50
2023-03-07T00:18:48.801Z,7.30
2023-03-07T00:21:19.263Z,7.30
2023-03-07T00:23:47.936Z,7.20
2023-03-07T00:26:19.360Z,7.20
2023-03-07T00:28:49.926Z,7.20
2023-03-07T00:31:19.289Z,7.10
2023-03-07T00:33:48.258Z,7.20
2023-03-07T00:36:18.153Z,7.10
2023-03-07T00:38:47.539Z,7.10
2023-03-07T00:41:19.452Z,7.10
2023-03-07T00:43:48.157Z,7.10
2023-03-07T00:46:17.163Z,7.10
2023-03-07T00:48:46.094Z,7.20
2023-03-07T00:51:16.151Z,7.20
2023-03-07T00:53:45.231Z,7.20
2023-03-07T00:56:16.521Z,7.30
2023-03-07T00:58:47.095Z,7.30
2023-03-07T01:01:17.651Z,7.20
2023-03-07T01:03:46.203Z,7.20
2023-03-07T01:06:16.802Z,7.30
2023-03-07T01:08:45.945Z,7.30
2023-03-07T01:11:15.255Z,7.30
2023-03-07T01:13:43.626Z,7.30
2023-03-07T01:16:16.762Z,7.30
2023-03-07T01:18:46.950Z,7.40
2023-03-07T01:21:17.514Z,7.40
2023-03-07T01:23:46.335Z,7.40
2023-03-07T01:26:15.254Z,7.40
2023-03-07T01:28:43.781Z,7.40
2023-03-07T01:31:13.633Z,7.40
2023-03-07T01:33:42.105Z,7.40
2023-03-07T01:36:19.144Z,7.50
2023-03-07T01:38:47.670Z,7.60
2023-03-07T01:41:16.492Z,7.50
2023-03-07T01:43:44.987Z,7.50
2023-03-07T01:46:42.352Z,7.50
2023-03-07T01:49:16.520Z,7.60
2023-03-07T01:51:48.596Z,7.50
2023-03-07T01:54:19.613Z,7.50
2023-03-07T01:56:49.257Z,7.60
2023-03-07T01:59:22.656Z,7.60
2023-03-07T02:01:53.035Z,7.60
2023-03-07T02:04:26.630Z,7.70
2023-03-07T02:06:54.924Z,7.60
2023-03-07T02:09:25.655Z,7.60
2023-03-07T02:11:54.099Z,7.60
2023-03-07T02:14:22.549Z,7.50
2023-03-07T02:16:53.552Z,7.70
2023-03-07T02:19:31.496Z,7.60
2023-03-07T02:22:08.928Z,7.50
2023-03-07T02:24:43.263Z,7.50
2023-03-07T02:27:13.396Z,7.50
2023-03-07T02:29:42.106Z,7.50
2023-03-07T02:32:10.903Z,7.60
2023-03-07T02:34:39.341Z,7.50
2023-03-07T02:37:11.924Z,7.50
2023-03-07T02:39:42.800Z,7.50
2023-03-07T02:42:16.992Z,7.60
2023-03-07T02:44:46.275Z,7.60
2023-03-07T02:47:14.579Z,7.50
2023-03-07T02:49:43.100Z,7.50
2023-03-07T02:52:11.590Z,7.50
2023-03-07T02:54:40.047Z,7.50
2023-03-07T02:57:08.458Z,7.40
2023-03-07T02:59:38.145Z,7.40
2023-03-07T03:02:06.721Z,7.50
2023-03-07T03:04:35.389Z,7.50
2023-03-07T03:07:03.868Z,7.60
2023-03-07T03:09:32.703Z,7.60
2023-03-07T03:12:01.332Z,7.50
2023-03-07T03:14:29.880Z,7.70
2023-03-07T03:16:59.630Z,7.60
2023-03-07T03:19:30.744Z,7.50
2023-03-07T03:21:59.858Z,7.60
2023-03-07T03:24:28.282Z,7.60
2023-03-07T03:26:58.360Z,7.60
2023-03-07T03:29:27.206Z,7.50
2023-03-07T03:31:55.750Z,7.60
2023-03-07T03:34:25.428Z,7.70
2023-03-07T03:36:53.967Z,7.70
2023-03-07T03:39:22.484Z,8.10
2023-03-07T03:41:50.881Z,7.90
2023-03-07T03:44:19.279Z,7.90
2023-03-07T03:46:49.361Z,7.80
2023-03-07T03:49:19.608Z,7.80
2023-03-07T03:51:49.468Z,7.90
2023-03-07T03:54:17.861Z,7.80
2023-03-07T03:56:46.401Z,7.70
2023-03-07T03:59:15.137Z,7.60
2023-03-07T04:01:43.802Z,7.60
2023-03-07T04:04:12.883Z,7.50
2023-03-07T04:06:42.569Z,7.50
2023-03-07T04:09:12.604Z,7.60
2023-03-07T04:11:41.010Z,7.60
2023-03-07T04:14:09.691Z,7.50
2023-03-07T04:16:38.154Z,7.50
2023-03-07T04:19:06.653Z,7.50
2023-03-07T04:21:35.239Z,7.60
2023-03-07T04:24:03.736Z,7.50
2023-03-07T04:26:33.435Z,7.50
2023-03-07T04:29:02.450Z,7.30
2023-03-07T04:31:31.193Z,7.40
2023-03-07T04:33:59.653Z,7.30
2023-03-07T04:36:28.199Z,7.40
2023-03-07T04:38:57.007Z,7.20
2023-03-07T04:41:26.826Z,7.10
2023-03-07T04:43:56.850Z,7.10
2023-03-07T04:46:25.254Z,7.00
2023-03-07T04:48:53.661Z,6.90
2023-03-07T04:51:22.177Z,6.90
2023-03-07T04:53:50.623Z,6.80
2023-03-07T04:56:19.070Z,6.70
2023-03-07T04:58:47.461Z,6.70
2023-03-07T05:01:17.121Z,6.70
2023-03-07T05:03:45.803Z,6.60
2023-03-07T05:06:16.202Z,6.70
2023-03-07T05:08:45.247Z,6.60
2023-03-07T05:11:13.516Z,6.60
2023-03-07T05:13:41.936Z,6.50
2023-03-07T05:16:10.385Z,6.40
2023-03-07T05:18:40.374Z,6.60
2023-03-07T05:21:08.696Z,6.40
2023-03-07T05:23:37.118Z,6.40
2023-03-07T05:26:05.871Z,6.30
2023-03-07T05:28:35.247Z,6.20
2023-03-07T05:31:03.649Z,6.30
2023-03-07T05:33:32.348Z,6.40
2023-03-07T05:36:02.776Z,6.30
2023-03-07T05:38:31.297Z,6.30
2023-03-07T05:40:59.643Z,6.40
2023-03-07T05:43:28.099Z,6.40
2023-03-07T05:45:56.451Z,6.30
2023-03-07T05:48:25.302Z,6.30
2023-03-07T05:50:53.685Z,6.30
2023-03-07T05:53:23.274Z,6.30
2023-03-07T05:55:51.667Z,6.40
2023-03-07T05:58:20.398Z,6.30
2023-03-07T06:00:49.479Z,6.30
2023-03-07T06:03:17.860Z,6.30
2023-03-07T06:05:46.328Z,6.50
2023-03-07T06:08:14.702Z,6.60
2023-03-07T06:10:44.559Z,6.50
2023-03-07T06:13:17.886Z,6.40
2023-03-07T06:15:46.475Z,6.50
2023-03-07T06:18:14.938Z,6.30
2023-03-07T06:20:43.611Z,6.30
2023-03-07T06:23:13.325Z,6.40
2023-03-07T06:25:43.131Z,6.40
2023-03-07T06:28:11.934Z,6.40
2023-03-07T06:30:40.402Z,6.30
2023-03-07T06:33:09.071Z,6.20
2023-03-07T06:35:41.044Z,6.10
2023-03-07T06:38:10.011Z,6.20
2023-03-07T06:40:38.734Z,6.10
2023-03-07T06:43:08.603Z,6.00
2023-03-07T06:45:38.121Z,5.90
2023-03-07T06:48:06.573Z,5.90
2023-03-07T06:50:35.881Z,5.90
2023-03-07T06:53:04.363Z,5.80
2023-03-07T06:55:32.830Z,5.80
2023-03-07T06:58:01.289Z,5.80
2023-03-07T07:00:31.005Z,5.80
2023-03-07T07:02:59.675Z,5.70
2023-03-07T07:05:28.309Z,5.70
2023-03-07T07:07:56.945Z,5.70
2023-03-07T07:10:25.427Z,5.70
2023-03-07T07:12:56.762Z,5.70
2023-03-07T07:15:25.936Z,5.60
2023-03-07T07:17:55.863Z,5.60
2023-03-07T07:20:24.679Z,5.60
2023-03-07T07:22:53.120Z,5.70
2023-03-07T07:25:21.797Z,5.60
2023-03-07T07:27:50.155Z,5.70
2023-03-07T07:30:18.751Z,5.60
2023-03-07T07:32:48.210Z,5.60
2023-03-07T07:35:18.231Z,5.70
2023-03-07T07:37:46.938Z,5.50
2023-03-07T07:40:16.187Z,5.50
2023-03-07T07:42:44.979Z,5.60
2023-03-07T07:45:13.512Z,5.60
2023-03-07T07:47:42.319Z,5.50
2023-03-07T07:50:11.533Z,5.40
2023-03-07T07:52:41.338Z,5.40
2023-03-07T07:55:13.661Z,5.40
2023-03-07T07:57:42.358Z,5.40
2023-03-07T08:00:12.863Z,5.40
2023-03-07T08:02:41.592Z,5.50
2023-03-07T08:05:11.305Z,5.50
2023-03-07T08:07:40.996Z,5.50
2023-03-07T08:10:10.745Z,5.40
2023-03-07T08:12:39.305Z,5.40
2023-03-07T08:15:08.815Z,5.30
2023-03-07T08:17:37.310Z,5.30
2023-03-07T08:20:10.075Z,5.40
2023-03-07T08:22:38.707Z,5.40
2023-03-07T08:25:09.778Z,5.40
2023-03-07T08:27:38.623Z,5.30
2023-03-07T08:30:07.632Z,5.30
2023-03-07T08:32:35.981Z,5.30
2023-03-07T08:35:04.711Z,5.30
2023-03-07T08:37:34.292Z,5.30
2023-03-07T08:40:02.887Z,5.30
2023-03-07T08:42:32.502Z,5.30
2023-03-07T08:45:01.051Z,5.30
2023-03-07T08:47:29.431Z,5.30
2023-03-07T08:49:57.825Z,5.40
2023-03-07T08:52:26.270Z,5.30
2023-03-07T08:54:54.700Z,5.40
2023-03-07T08:57:23.115Z,5.40
2023-03-07T08:59:52.863Z,5.40
2023-03-07T09:02:21.321Z,5.50
2023-03-07T09:04:49.771Z,5.40
2023-03-07T09:07:19.326Z,5.40
2023-03-07T09:09:48.172Z,5.20
2023-03-07T09:12:16.589Z,5.30
2023-03-07T09:14:45.057Z,5.30
2023-03-07T09:17:14.637Z,5.40
2023-03-07T09:19:43.562Z,5.40
2023-03-07T09:22:12.180Z,5.40
2023-03-07T09:24:40.569Z,5.50
2023-03-07T09:27:09.082Z,5.60
2023-03-07T09:29:37.496Z,5.50
2023-03-07T09:32:06.242Z,5.50
2023-03-07T09:34:35.893Z,5.50
2023-03-07T09:37:04.482Z,5.50
2023-03-07T09:39:33.123Z,5.50
2023-03-07T09:42:09.632Z,5.50
2023-03-07T09:45:11.006Z,5.50
2023-03-07T09:48:00.341Z,5.60
2023-03-07T09:50:40.440Z,5.60
2023-03-07T09:53:20.472Z,5.60
2023-03-07T09:55:51.616Z,5.70
2023-03-07T09:58:24.644Z,5.70
2023-03-07T10:01:02.421Z,5.70
2023-03-07T10:03:38.675Z,5.70
2023-03-07T10:06:15.498Z,5.70
2023-03-07T10:08:43.960Z,5.70
2023-03-07T10:11:30.401Z,5.80
2023-03-07T10:14:09.315Z,5.80
2023-03-07T10:16:44.888Z,5.90
2023-03-07T10:19:20.919Z,5.90
2023-03-07T10:21:59.793Z,5.80
2023-03-07T10:24:39.838Z,5.90
2023-03-07T10:27:09.996Z,5.90
2023-03-07T10:29:46.333Z,5.90
2023-03-07T10:32:23.839Z,6.00
2023-03-07T10:34:59.292Z,6.00
2023-03-07T10:37:44.009Z,6.00
2023-03-07T10:40:20.919Z,5.90
2023-03-07T10:42:49.468Z,6.00
2023-03-07T10:45:18.062Z,6.00
2023-03-07T10:47:46.492Z,5.90
2023-03-07T10:50:38.591Z,5.90
2023-03-07T10:53:21.153Z,6.00
2023-03-07T10:55:49.739Z,6.00
2023-03-07T10:58:23.669Z,6.10
2023-03-07T11:01:15.895Z,6.10
2023-03-07T11:03:58.464Z,6.00
2023-03-07T11:06:39.229Z,5.90
2023-03-07T11:09:27.182Z,6.00
2023-03-07T11:11:58.815Z,6.00
2023-03-07T11:14:28.638Z,6.10
2023-03-07T11:17:00.030Z,5.90
2023-03-07T11:19:35.047Z,5.90
2023-03-07T11:22:05.339Z,5.80
2023-03-07T11:24:39.124Z,5.80
2023-03-07T11:27:08.018Z,5.90
2023-03-07T11:29:36.923Z,5.80
2023-03-07T11:32:14.076Z,6.00
2023-03-07T11:34:48.329Z,6.00
2023-03-07T11:37:29.409Z,6.00
2023-03-07T11:40:27.717Z,6.00
2023-03-07T11:43:07.184Z,5.90
2023-03-07T11:45:43.389Z,5.90
2023-03-07T11:48:28.472Z,6.00
2023-03-07T11:50:58.435Z,6.10
2023-03-07T11:53:35.394Z,6.10
2023-03-07T11:56:21.242Z,6.00
2023-03-07T11:59:22.095Z,6.00
2023-03-07T12:01:57.083Z,6.10
2023-03-07T12:04:47.736Z,6.10
2023-03-07T12:07:39.381Z,6.00
2023-03-07T12:10:16.361Z,6.00
2023-03-07T12:12:57.179Z,6.10
2023-03-07T12:15:41.327Z,6.00
2023-03-07T12:18:36.537Z,6.00
2023-03-07T12:21:21.163Z,5.90
2023-03-07T12:23:54.994Z,6.00
2023-03-07T12:26:27.967Z,5.90
2023-03-07T12:29:03.405Z,5.80
2023-03-07T12:31:34.009Z,5.90
2023-03-07T12:34:08.372Z,6.00
2023-03-07T12:36:42.664Z,5.90
2023-03-07T12:39:20.714Z,5.90
2023-03-07T12:42:03.321Z,5.80
2023-03-07T12:44:39.158Z,5.90
2023-03-07T12:47:16.755Z,5.90
2023-03-07T12:49:50.533Z,5.90
2023-03-07T12:52:29.016Z,5.80
2023-03-07T12:55:02.218Z,5.80
2023-03-07T12:57:35.802Z,5.90
2023-03-07T13:00:11.835Z,5.90
2023-03-07T13:02:48.433Z,6.00
2023-03-07T13:05:21.367Z,6.00
2023-03-07T13:07:51.603Z,5.90
2023-03-07T13:10:22.401Z,5.90
2023-03-07T13:12:52.040Z,5.90
2023-03-07T13:16:01.909Z,5.80
2023-03-07T13:18:32.363Z,5.90
2023-03-07T13:21:12.347Z,5.80
2023-03-07T13:23:40.900Z,5.70
2023-03-07T13:26:14.226Z,5.70
2023-03-07T13:28:53.036Z,5.70
2023-03-07T13:31:44.002Z,5.80
2023-03-07T13:34:53.244Z,5.80
2023-03-07T13:37:56.714Z,5.70
2023-03-07T13:40:56.349Z,5.70
2023-03-07T13:44:02.760Z,5.70
2023-03-07T13:46:55.780Z,5.70
2023-03-07T13:49:38.984Z,5.70
2023-03-07T13:52:37.747Z,5.80
2023-03-07T13:55:23.195Z,5.70
2023-03-07T13:57:52.255Z,5.70
2023-03-07T14:00:26.081Z,5.80
2023-03-07T14:02:57.404Z,5.70
2023-03-07T14:05:26.695Z,5.60
2023-03-07T14:07:55.519Z,5.50
2023-03-07T14:10:27.944Z,5.50
2023-03-07T14:13:18.526Z,5.50
2023-03-07T14:15:58.234Z,5.50
2023-03-07T14:18:40.508Z,5.50
2023-03-07T14:21:17.872Z,5.50
2023-03-07T14:24:21.315Z,5.40
2023-03-07T14:26:54.322Z,5.30
2023-03-07T14:29:24.237Z,5.00
2023-03-07T14:31:54.483Z,4.90
2023-03-07T14:34:28.807Z,4.80
2023-03-07T14:36:59.525Z,4.80
2023-03-07T14:39:43.305Z,4.80
2023-03-07T14:42:22.930Z,4.90
2023-03-07T14:45:10.856Z,4.90
2023-03-07T14:48:03.165Z,4.90
2023-03-07T14:50:34.007Z,4.90
2023-03-07T14:53:06.139Z,4.90
2023-03-07T14:55:38.511Z,4.80
2023-03-07T14:58:07.650Z,4.90
2023-03-07T15:00:36.292Z,4.90
2023-03-07T15:03:08.210Z,4.90
2023-03-07T15:05:39.856Z,5.00
2023-03-07T15:08:20.158Z,4.90
2023-03-07T15:10:51.414Z,4.80
2023-03-07T15:13:23.528Z,4.90
2023-03-07T15:15:56.501Z,4.90
2023-03-07T15:18:29.074Z,4.90
2023-03-07T15:21:01.038Z,4.90
2023-03-07T15:23:31.002Z,4.90
2023-03-07T15:26:05.223Z,4.80
2023-03-07T15:28:36.230Z,4.80
2023-03-07T15:31:05.283Z,4.90
2023-03-07T15:33:34.907Z,5.00
2023-03-07T15:36:27.797Z,4.90
2023-03-07T15:39:31.346Z,4.90
2023-03-07T15:42:05.131Z,4.90
2023-03-07T15:44:34.796Z,5.00
2023-03-07T15:47:13.830Z,5.00
2023-03-07T15:49:47.318Z,5.10
2023-03-07T15:52:26.763Z,5.00
2023-03-07T15:54:57.484Z,4.90
2023-03-07T15:57:29.989Z,4.80
2023-03-07T16:00:01.765Z,4.70
2023-03-07T16:02:43.206Z,4.80
2023-03-07T16:05:38.436Z,4.80
2023-03-07T16:08:16.132Z,4.80
2023-03-07T16:10:49.808Z,4.80
2023-03-07T16:13:20.980Z,4.70
2023-03-07T16:16:04.337Z,4.70
2023-03-07T16:18:33.730Z,4.70
2023-03-07T16:21:02.212Z,4.80
2023-03-07T16:23:32.014Z,4.80
2023-03-07T16:26:02.671Z,4.90
2023-03-07T16:28:31.483Z,4.90
2023-03-07T16:31:00.194Z,4.90
2023-03-07T16:33:28.702Z,4.90
2023-03-07T16:35:57.135Z,4.90
2023-03-07T16:38:25.724Z,4.90
2023-03-07T16:40:55.479Z,4.90
2023-03-07T16:43:34.598Z,4.90
2023-03-07T16:46:04.534Z,5.00
2023-03-07T16:48:33.075Z,4.90
2023-03-07T16:51:02.184Z,5.00
2023-03-07T16:53:30.624Z,5.00
2023-03-07T16:56:00.767Z,5.00
2023-03-07T16:58:32.178Z,5.00
2023-03-07T17:01:01.079Z,5.00
2023-03-07T17:03:30.658Z,5.10
2023-03-07T17:05:59.194Z,5.10
2023-03-07T17:08:27.965Z,4.90
2023-03-07T17:10:56.668Z,4.90
2023-03-07T17:13:26.441Z,5.00
2023-03-07T17:15:54.921Z,4.90
2023-03-07T17:18:24.615Z,4.90
2023-03-07T17:20:53.248Z,5.00
2023-03-07T17:23:22.290Z,4.90
2023-03-07T17:25:50.808Z,5.00
2023-03-07T17:28:20.412Z,5.00
2023-03-07T17:30:50.221Z,5.00
2023-03-07T17:33:19.727Z,4.90
2023-03-07T17:35:48.164Z,4.90
2023-03-07T17:38:16.749Z,4.70
2023-03-07T17:40:45.454Z,4.70
2023-03-07T17:43:14.360Z,4.70
2023-03-07T17:45:42.769Z,4.80
2023-03-07T17:48:12.802Z,4.80
2023-03-07T17:50:41.882Z,4.80
2023-03-07T17:53:10.462Z,4.80
2023-03-07T17:55:39.082Z,4.80
2023-03-07T17:58:09.507Z,4.80
2023-03-07T18:00:38.673Z,4.80
2023-03-07T18:03:07.450Z,4.80
2023-03-07T18:05:36.978Z,4.90
2023-03-07T18:08:05.697Z,4.80
2023-03-07T18:10:34.281Z,4.80
2023-03-07T18:13:02.690Z,4.80
2023-03-07T18:15:31.129Z,4.80
2023-03-07T18:18:00.139Z,4.80
2023-03-07T18:20:29.832Z,4.90
2023-03-07T18:22:59.499Z,4.80
2023-03-07T18:25:28.250Z,4.80
2023-03-07T18:27:57.076Z,4.80
2023-03-07T18:30:25.719Z,4.80
2023-03-07T18:32:55.387Z,4.80
2023-03-07T18:35:24.464Z,4.80
2023-03-07T18:37:53.395Z,4.80
2023-03-07T18:40:24.821Z,4.80
2023-03-07T18:42:53.485Z,4.80
2023-03-07T18:45:21.932Z,4.80
2023-03-07T18:47:50.492Z,4.80
2023-03-07T18:50:19.136Z,4.80
2023-03-07T18:52:47.583Z,4.70
2023-03-07T18:55:16.063Z,4.70
2023-03-07T18:57:45.618Z,4.70
2023-03-07T19:00:15.293Z,4.70
2023-03-07T19:02:43.692Z,4.70
2023-03-07T19:05:12.250Z,4.70
2023-03-07T19:07:41.307Z,4.70
2023-03-07T19:10:10.734Z,4.60
2023-03-07T19:12:39.065Z,4.70
2023-03-07T19:15:09.555Z,4.70
2023-03-07T19:17:42.041Z,4.80
2023-03-07T19:20:11.410Z,4.70
2023-03-07T19:22:39.874Z,4.60
2023-03-07T19:25:09.852Z,4.60
2023-03-07T19:27:38.300Z,4.60
2023-03-07T19:30:11.299Z,4.50
2023-03-07T19:32:40.228Z,4.50
2023-03-07T19:35:09.326Z,4.40
2023-03-07T19:37:37.984Z,4.40
2023-03-07T19:40:07.537Z,4.40
2023-03-07T19:42:36.318Z,4.40
2023-03-07T19:45:05.020Z,4.40
2023-03-07T19:47:35.066Z,4.30
2023-03-07T19:50:04.308Z,4.30
2023-03-07T19:52:32.891Z,4.30
2023-03-07T19:55:01.361Z,4.20
2023-03-07T19:57:30.149Z,4.20
2023-03-07T19:59:58.572Z,4.10
2023-03-07T20:02:29.433Z,4.10
2023-03-07T20:05:00.145Z,4.10
2023-03-07T20:07:28.524Z,4.00
2023-03-07T20:09:57.070Z,4.00
2023-03-07T20:12:25.575Z,4.00
2023-03-07T20:14:53.968Z,3.90
2023-03-07T20:17:22.437Z,3.90
2023-03-07T20:19:51.841Z,3.90
2023-03-07T20:22:23.500Z,3.90
2023-03-07T20:24:52.231Z,3.90
2023-03-07T20:27:23.612Z,3.90
2023-03-07T20:29:52.731Z,3.90
2023-03-07T20:32:21.425Z,3.90
2023-03-07T20:34:53.163Z,3.90
2023-03-07T20:37:23.122Z,3.90
2023-03-07T20:39:51.517Z,3.90
2023-03-07T20:42:19.959Z,3.90
2023-03-07T20:44:48.899Z,3.90
2023-03-07T20:47:17.354Z,3.90
2023-03-07T20:49:45.972Z,3.90
2023-03-07T20:52:14.412Z,3.90
2023-03-07T20:54:44.585Z,3.90
2023-03-07T20:57:13.058Z,4.00
2023-03-07T20:59:41.427Z,4.00
2023-03-07T21:02:11.745Z,3.90
2023-03-07T21:04:40.150Z,4.00
2023-03-07T21:07:08.643Z,4.00
2023-03-07T21:09:37.494Z,4.10
2023-03-07T21:12:08.658Z,4.00
2023-03-07T21:14:37.115Z,4.10
2023-03-07T21:17:06.082Z,4.10
2023-03-07T21:19:34.858Z,4.10
2023-03-07T21:22:03.334Z,4.10
2023-03-07T21:24:31.768Z,4.10
2023-03-07T21:27:00.297Z,4.10
2023-03-07T21:29:30.052Z,4.10
2023-03-07T21:31:58.484Z,4.10
2023-03-07T21:34:27.113Z,4.20
2023-03-07T21:36:56.392Z,4.20
2023-03-07T21:39:25.397Z,4.20
2023-03-07T21:41:53.841Z,4.20
2023-03-07T21:44:22.208Z,4.10
2023-03-07T21:46:51.867Z,4.10
2023-03-07T21:49:20.590Z,4.10
2023-03-07T21:51:49.099Z,4.10
2023-03-07T21:54:17.506Z,4.10
2023-03-07T21:56:45.896Z,4.10
2023-03-07T21:59:14.683Z,4.10
2023-03-07T22:01:43.157Z,4.10
2023-03-07T22:04:12.822Z,4.00
2023-03-07T22:06:41.396Z,4.00
2023-03-07T22:09:10.261Z,4.10
2023-03-07T22:11:38.771Z,4.00
2023-03-07T22:14:07.126Z,4.10
2023-03-07T22:16:35.641Z,4.10
2023-03-07T22:19:04.424Z,4.00
2023-03-07T22:21:34.178Z,4.00
2023-03-07T22:24:02.868Z,4.10
2023-03-07T22:26:32.576Z,4.00
2023-03-07T22:29:02.958Z,4.00
2023-03-07T22:31:31.437Z,4.00
2023-03-07T22:34:00.334Z,4.10
2023-03-07T22:36:28.789Z,4.00
2023-03-07T22:38:58.811Z,4.00
2023-03-07T22:41:27.384Z,4.10
2023-03-07T22:43:56.005Z,4.00
2023-03-07T22:46:24.607Z,4.00
2023-03-07T22:48:54.344Z,4.00
2023-03-07T22:51:23.636Z,4.10
2023-03-07T22:53:52.063Z,4.00
2023-03-07T22:56:24.266Z,4.10
2023-03-07T22:58:53.128Z,4.10
2023-03-07T23:01:22.642Z,4.10
2023-03-07T23:03:51.869Z,4.00
2023-03-07T23:06:20.563Z,4.10
2023-03-07T23:08:52.064Z,4.10
2023-03-07T23:11:23.785Z,4.10
2023-03-07T23:13:52.701Z,4.00
2023-03-07T23:16:22.756Z,4.00
2023-03-07T23:18:51.746Z,4.00
2023-03-07T23:21:21.784Z,4.00
2023-03-07T23:23:50.834Z,4.00
2023-03-07T23:26:22.865Z,4.00
2023-03-07T23:28:51.566Z,4.10
2023-03-07T23:31:21.560Z,4.00
2023-03-07T23:33:50.301Z,4.00
2023-03-07T23:36:18.699Z,4.00
2023-03-07T23:38:47.550Z,4.00
2023-03-07T23:41:16.477Z,4.00
2023-03-07T23:43:46.478Z,4.00
2023-03-07T23:46:15.244Z,4.00
2023-03-07T23:48:44.197Z,4.00
2023-03-07T23:51:12.720Z,4.00
2023-03-07T23:53:41.190Z,4.00
2023-03-07T23:56:10.829Z,4.00
2023-03-07T23:58:39.766Z,4.00
